sensor_id;sensor_type;location;lat;lon;timestamp;pressure;altitude;pressure_sealevel;temperature;humidity
74722;BME280;63470;49.826;6.740;2024-02-21T00:00:44;101207.09;;;9.07;74.00
74722;BME280;63470;49.826;6.740;2024-02-21T00:03:07;101199.62;;;9.07;74.01
74722;BME280;63470;49.826;6.740;2024-02-21T00:05:37;101192.19;;;9.07;73.98
74722;BME280;63470;49.826;6.740;2024-02-21T00:08:08;101180.94;;;9.07;74.03
74722;BME280;63470;49.826;6.740;2024-02-21T00:10:38;101177.95;;;9.06;74.04
74722;BME280;63470;49.826;6.740;2024-02-21T00:13:09;101174.59;;;9.07;74.03
74722;BME280;63470;49.826;6.740;2024-02-21T00:15:39;101168.42;;;9.08;73.96
74722;BME280;63470;49.826;6.740;2024-02-21T00:18:11;101163.55;;;9.08;73.90
74722;BME280;63470;49.826;6.740;2024-02-21T00:20:40;101161.26;;;9.07;73.91
74722;BME280;63470;49.826;6.740;2024-02-21T00:23:10;101161.73;;;9.06;73.91
74722;BME280;63470;49.826;6.740;2024-02-21T00:25:46;101156.13;;;9.04;73.94
74722;BME280;63470;49.826;6.740;2024-02-21T00:28:14;101144.44;;;9.04;73.95
74722;BME280;63470;49.826;6.740;2024-02-21T00:30:46;101144.44;;;9.06;73.90
74722;BME280;63470;49.826;6.740;2024-02-21T00:33:16;101143.95;;;9.06;73.87
74722;BME280;63470;49.826;6.740;2024-02-21T00:35:49;101134.55;;;9.04;73.85
74722;BME280;63470;49.826;6.740;2024-02-21T00:38:17;101126.80;;;9.03;73.81
74722;BME280;63470;49.826;6.740;2024-02-21T00:40:47;101126.81;;;9.00;73.80
74722;BME280;63470;49.826;6.740;2024-02-21T00:43:16;101135.85;;;8.98;73.87
74722;BME280;63470;49.826;6.740;2024-02-21T00:45:51;101139.30;;;8.98;73.92
74722;BME280;63470;49.826;6.740;2024-02-21T00:48:22;101132.16;;;8.99;73.94
74722;BME280;63470;49.826;6.740;2024-02-21T00:50:50;101119.39;;;9.00;73.93
74722;BME280;63470;49.826;6.740;2024-02-21T00:53:18;101122.11;;;9.02;73.92
74722;BME280;63470;49.826;6.740;2024-02-21T00:55:49;101123.70;;;9.03;73.92
74722;BME280;63470;49.826;6.740;2024-02-21T00:58:24;101116.38;;;9.06;73.89
74722;BME280;63470;49.826;6.740;2024-02-21T01:00:54;101121.17;;;9.09;73.87
74722;BME280;63470;49.826;6.740;2024-02-21T01:03:20;101119.59;;;9.09;73.87
74722;BME280;63470;49.826;6.740;2024-02-21T01:05:53;101115.23;;;9.10;73.87
74722;BME280;63470;49.826;6.740;2024-02-21T01:08:26;101104.38;;;9.11;73.84
74722;BME280;63470;49.826;6.740;2024-02-21T01:10:55;101098.20;;;9.09;73.85
74722;BME280;63470;49.826;6.740;2024-02-21T01:13:25;101097.45;;;9.07;73.88
74722;BME280;63470;49.826;6.740;2024-02-21T01:15:58;101088.38;;;9.04;73.92
74722;BME280;63470;49.826;6.740;2024-02-21T01:18:28;101089.27;;;9.03;73.96
74722;BME280;63470;49.826;6.740;2024-02-21T01:20:53;101091.84;;;9.03;73.98
74722;BME280;63470;49.826;6.740;2024-02-21T01:23:24;101073.64;;;9.02;73.99
74722;BME280;63470;49.826;6.740;2024-02-21T01:25:58;101079.39;;;9.03;73.99
74722;BME280;63470;49.826;6.740;2024-02-21T01:28:27;101083.34;;;9.04;73.98
74722;BME280;63470;49.826;6.740;2024-02-21T01:30:57;101086.98;;;9.04;74.01
74722;BME280;63470;49.826;6.740;2024-02-21T01:33:31;101091.01;;;9.06;74.00
74722;BME280;63470;49.826;6.740;2024-02-21T01:35:58;101090.68;;;9.07;73.98
74722;BME280;63470;49.826;6.740;2024-02-21T01:38:32;101089.14;;;9.08;73.94
74722;BME280;63470;49.826;6.740;2024-02-21T01:41:02;101091.45;;;9.08;73.93
74722;BME280;63470;49.826;6.740;2024-02-21T01:43:33;101094.07;;;9.08;73.95
74722;BME280;63470;49.826;6.740;2024-02-21T01:46:03;101102.21;;;9.08;73.96
74722;BME280;63470;49.826;6.740;2024-02-21T01:48:29;101101.56;;;9.08;73.92
74722;BME280;63470;49.826;6.740;2024-02-21T01:51:04;101096.79;;;9.07;73.91
74722;BME280;63470;49.826;6.740;2024-02-21T01:53:34;101100.08;;;9.06;73.91
74722;BME280;63470;49.826;6.740;2024-02-21T01:56:05;101094.81;;;9.05;73.97
74722;BME280;63470;49.826;6.740;2024-02-21T01:58:36;101081.70;;;9.05;73.95
74722;BME280;63470;49.826;6.740;2024-02-21T02:01:06;101072.98;;;9.06;73.96
74722;BME280;63470;49.826;6.740;2024-02-21T02:03:32;101065.73;;;9.06;73.95
74722;BME280;63470;49.826;6.740;2024-02-21T02:06:07;101052.72;;;9.05;73.93
74722;BME280;63470;49.826;6.740;2024-02-21T02:08:38;101047.37;;;9.05;73.91
74722;BME280;63470;49.826;6.740;2024-02-21T02:11:06;101034.86;;;9.04;73.90
74722;BME280;63470;49.826;6.740;2024-02-21T02:13:37;101029.98;;;9.01;73.90
74722;BME280;63470;49.826;6.740;2024-02-21T02:16:09;101017.65;;;8.98;73.93
74722;BME280;63470;49.826;6.740;2024-02-21T02:18:38;101016.07;;;8.93;73.90
74722;BME280;63470;49.826;6.740;2024-02-21T02:21:13;101015.71;;;8.84;73.92
74722;BME280;63470;49.826;6.740;2024-02-21T02:23:41;101004.82;;;8.76;73.98
74722;BME280;63470;49.826;6.740;2024-02-21T02:26:10;100998.45;;;8.71;74.04
74722;BME280;63470;49.826;6.740;2024-02-21T02:28:40;100994.98;;;8.66;74.04
74722;BME280;63470;49.826;6.740;2024-02-21T02:31:11;100991.90;;;8.61;74.08
74722;BME280;63470;49.826;6.740;2024-02-21T02:33:44;100994.03;;;8.57;74.10
74722;BME280;63470;49.826;6.740;2024-02-21T02:36:14;100988.17;;;8.57;74.11
74722;BME280;63470;49.826;6.740;2024-02-21T02:38:42;100989.11;;;8.56;74.10
74722;BME280;63470;49.826;6.740;2024-02-21T02:41:14;100989.02;;;8.58;74.13
74722;BME280;63470;49.826;6.740;2024-02-21T02:43:45;100981.14;;;8.60;74.13
74722;BME280;63470;49.826;6.740;2024-02-21T02:46:15;100979.66;;;8.65;74.13
74722;BME280;63470;49.826;6.740;2024-02-21T02:48:45;100982.47;;;8.69;74.11
74722;BME280;63470;49.826;6.740;2024-02-21T02:51:13;100981.16;;;8.73;74.08
74722;BME280;63470;49.826;6.740;2024-02-21T02:53:43;100987.53;;;8.74;74.08
74722;BME280;63470;49.826;6.740;2024-02-21T02:56:20;100983.83;;;8.76;74.07
74722;BME280;63470;49.826;6.740;2024-02-21T02:58:45;100981.11;;;8.77;74.05
74722;BME280;63470;49.826;6.740;2024-02-21T03:01:17;100973.12;;;8.79;74.02
74722;BME280;63470;49.826;6.740;2024-02-21T03:03:47;100975.19;;;8.79;74.02
74722;BME280;63470;49.826;6.740;2024-02-21T03:06:18;100972.97;;;8.79;74.00
74722;BME280;63470;49.826;6.740;2024-02-21T03:08:46;100972.39;;;8.79;74.00
74722;BME280;63470;49.826;6.740;2024-02-21T03:11:19;100960.88;;;8.79;74.00
74722;BME280;63470;49.826;6.740;2024-02-21T03:13:45;100954.88;;;8.80;73.96
74722;BME280;63470;49.826;6.740;2024-02-21T03:16:17;100953.05;;;8.79;73.95
74722;BME280;63470;49.826;6.740;2024-02-21T03:18:46;100952.48;;;8.78;73.98
74722;BME280;63470;49.826;6.740;2024-02-21T03:21:21;100960.30;;;8.78;73.99
74722;BME280;63470;49.826;6.740;2024-02-21T03:23:47;100967.21;;;8.78;73.99
74722;BME280;63470;49.826;6.740;2024-02-21T03:26:18;100962.03;;;8.78;74.03
74722;BME280;63470;49.826;6.740;2024-02-21T03:28:50;100951.91;;;8.80;74.02
74722;BME280;63470;49.826;6.740;2024-02-21T03:31:20;100948.46;;;8.80;74.00
74722;BME280;63470;49.826;6.740;2024-02-21T03:33:53;100952.73;;;8.81;73.97
74722;BME280;63470;49.826;6.740;2024-02-21T03:36:24;100945.50;;;8.80;73.94
74722;BME280;63470;49.826;6.740;2024-02-21T03:38:54;100929.67;;;8.79;73.93
74722;BME280;63470;49.826;6.740;2024-02-21T03:41:23;100913.73;;;8.78;73.95
74722;BME280;63470;49.826;6.740;2024-02-21T03:43:54;100918.41;;;8.77;73.95
74722;BME280;63470;49.826;6.740;2024-02-21T03:46:26;100911.33;;;8.77;73.99
74722;BME280;63470;49.826;6.740;2024-02-21T03:48:57;100905.16;;;8.77;74.00
74722;BME280;63470;49.826;6.740;2024-02-21T03:51:27;100908.30;;;8.78;74.04
74722;BME280;63470;49.826;6.740;2024-02-21T03:53:55;100915.69;;;8.79;74.06
74722;BME280;63470;49.826;6.740;2024-02-21T03:56:24;100911.67;;;8.79;74.07
74722;BME280;63470;49.826;6.740;2024-02-21T03:58:54;100915.05;;;8.82;74.09
74722;BME280;63470;49.826;6.740;2024-02-21T04:01:25;100912.33;;;8.83;74.09
74722;BME280;63470;49.826;6.740;2024-02-21T04:03:58;100902.88;;;8.84;74.09
74722;BME280;63470;49.826;6.740;2024-02-21T04:06:26;100889.14;;;8.82;74.02
74722;BME280;63470;49.826;6.740;2024-02-21T04:09:00;100877.27;;;8.77;74.00
74722;BME280;63470;49.826;6.740;2024-02-21T04:11:35;100865.75;;;8.72;73.96
74722;BME280;63470;49.826;6.740;2024-02-21T04:14:00;100867.87;;;8.67;73.99
74722;BME280;63470;49.826;6.740;2024-02-21T04:16:28;100870.52;;;8.64;74.05
74722;BME280;63470;49.826;6.740;2024-02-21T04:19:04;100876.41;;;8.63;74.04
74722;BME280;63470;49.826;6.740;2024-02-21T04:21:34;100878.64;;;8.62;74.00
74722;BME280;63470;49.826;6.740;2024-02-21T04:23:59;100870.98;;;8.59;74.03
74722;BME280;63470;49.826;6.740;2024-02-21T04:26:30;100866.88;;;8.58;74.02
74722;BME280;63470;49.826;6.740;2024-02-21T04:29:05;100864.41;;;8.56;74.01
74722;BME280;63470;49.826;6.740;2024-02-21T04:31:35;100858.38;;;8.55;74.00
74722;BME280;63470;49.826;6.740;2024-02-21T04:34:06;100857.72;;;8.52;73.98
74722;BME280;63470;49.826;6.740;2024-02-21T04:36:34;100855.01;;;8.48;74.04
74722;BME280;63470;49.826;6.740;2024-02-21T04:39:05;100855.41;;;8.48;74.11
74722;BME280;63470;49.826;6.740;2024-02-21T04:41:37;100852.11;;;8.47;74.12
74722;BME280;63470;49.826;6.740;2024-02-21T04:44:09;100849.41;;;8.46;74.11
74722;BME280;63470;49.826;6.740;2024-02-21T04:46:41;100856.23;;;8.46;74.12
74722;BME280;63470;49.826;6.740;2024-02-21T04:49:09;100867.92;;;8.48;74.12
74722;BME280;63470;49.826;6.740;2024-02-21T04:51:37;100866.67;;;8.49;74.08
74722;BME280;63470;49.826;6.740;2024-02-21T04:54:05;100871.78;;;8.50;74.10
74722;BME280;63470;49.826;6.740;2024-02-21T04:56:39;100871.38;;;8.52;74.11
74722;BME280;63470;49.826;6.740;2024-02-21T04:59:09;100865.37;;;8.53;74.07
74722;BME280;63470;49.826;6.740;2024-02-21T05:01:36;100865.29;;;8.55;74.05
74722;BME280;63470;49.826;6.740;2024-02-21T05:04:09;100862.00;;;8.57;74.02
74722;BME280;63470;49.826;6.740;2024-02-21T05:06:38;100862.25;;;8.57;74.00
74722;BME280;63470;49.826;6.740;2024-02-21T05:09:14;100862.59;;;8.58;73.97
74722;BME280;63470;49.826;6.740;2024-02-21T05:11:43;100860.53;;;8.58;73.97
74722;BME280;63470;49.826;6.740;2024-02-21T05:14:13;100851.08;;;8.58;73.96
74722;BME280;63470;49.826;6.740;2024-02-21T05:16:39;100849.67;;;8.58;73.96
74722;BME280;63470;49.826;6.740;2024-02-21T05:19:14;100842.42;;;8.57;73.93
74722;BME280;63470;49.826;6.740;2024-02-21T05:21:40;100841.27;;;8.57;73.92
74722;BME280;63470;49.826;6.740;2024-02-21T05:24:15;100837.02;;;8.56;73.96
74722;BME280;63470;49.826;6.740;2024-02-21T05:26:45;100832.82;;;8.56;73.97
74722;BME280;63470;49.826;6.740;2024-02-21T05:29:13;100834.62;;;8.56;73.96
74722;BME280;63470;49.826;6.740;2024-02-21T05:31:56;100832.73;;;8.58;73.97
74722;BME280;63470;49.826;6.740;2024-02-21T05:34:17;100835.45;;;8.60;73.94
74722;BME280;63470;49.826;6.740;2024-02-21T05:36:48;100835.38;;;8.60;73.91
74722;BME280;63470;49.826;6.740;2024-02-21T05:39:13;100830.03;;;8.60;73.92
74722;BME280;63470;49.826;6.740;2024-02-21T05:41:44;100830.02;;;8.61;73.90
74722;BME280;63470;49.826;6.740;2024-02-21T05:44:20;100829.61;;;8.62;73.91
74722;BME280;63470;49.826;6.740;2024-02-21T05:46:50;100827.21;;;8.61;73.92
74722;BME280;63470;49.826;6.740;2024-02-21T05:49:20;100826.39;;;8.61;73.91
74722;BME280;63470;49.826;6.740;2024-02-21T05:51:45;100826.30;;;8.61;73.93
74722;BME280;63470;49.826;6.740;2024-02-21T05:54:21;100822.61;;;8.61;73.93
74722;BME280;63470;49.826;6.740;2024-02-21T05:56:51;100824.52;;;8.62;73.92
74722;BME280;63470;49.826;6.740;2024-02-21T05:59:17;100823.76;;;8.63;73.92
74722;BME280;63470;49.826;6.740;2024-02-21T06:01:56;100815.28;;;8.63;73.89
74722;BME280;63470;49.826;6.740;2024-02-21T06:04:17;100805.19;;;8.62;73.88
74722;BME280;63470;49.826;6.740;2024-02-21T06:06:48;100805.36;;;8.62;73.92
74722;BME280;63470;49.826;6.740;2024-02-21T06:09:18;100798.42;;;8.63;73.91
74722;BME280;63470;49.826;6.740;2024-02-21T06:11:50;100789.72;;;8.64;73.88
74722;BME280;63470;49.826;6.740;2024-02-21T06:14:19;100794.39;;;8.63;73.87
74722;BME280;63470;49.826;6.740;2024-02-21T06:16:52;100798.11;;;8.63;73.89
74722;BME280;63470;49.826;6.740;2024-02-21T06:19:23;100796.20;;;8.61;73.90
74722;BME280;63470;49.826;6.740;2024-02-21T06:21:53;100802.88;;;8.60;73.94
74722;BME280;63470;49.826;6.740;2024-02-21T06:24:24;100797.78;;;8.60;73.95
74722;BME280;63470;49.826;6.740;2024-02-21T06:26:53;100784.68;;;8.61;73.93
74722;BME280;63470;49.826;6.740;2024-02-21T06:29:24;100783.45;;;8.61;73.95
74722;BME280;63470;49.826;6.740;2024-02-21T06:31:54;100787.25;;;8.62;73.93
74722;BME280;63470;49.826;6.740;2024-02-21T06:34:29;100790.61;;;8.61;73.92
74722;BME280;63470;49.826;6.740;2024-02-21T06:36:58;100787.65;;;8.61;73.94
74722;BME280;63470;49.826;6.740;2024-02-21T06:39:29;100783.52;;;8.61;73.93
74722;BME280;63470;49.826;6.740;2024-02-21T06:41:59;100774.56;;;8.61;73.93
74722;BME280;63470;49.826;6.740;2024-02-21T06:44:27;100772.11;;;8.61;73.89
74722;BME280;63470;49.826;6.740;2024-02-21T06:46:56;100772.77;;;8.61;73.91
74722;BME280;63470;49.826;6.740;2024-02-21T06:49:29;100784.45;;;8.62;73.91
74722;BME280;63470;49.826;6.740;2024-02-21T06:52:02;100784.94;;;8.63;73.96
74722;BME280;63470;49.826;6.740;2024-02-21T06:54:30;100781.83;;;8.64;73.97
74722;BME280;63470;49.826;6.740;2024-02-21T06:57:03;100782.48;;;8.66;73.96
74722;BME280;63470;49.826;6.740;2024-02-21T06:59:31;100781.73;;;8.69;73.96
74722;BME280;63470;49.826;6.740;2024-02-21T07:02:06;100777.79;;;8.70;73.95
74722;BME280;63470;49.826;6.740;2024-02-21T07:04:35;100775.32;;;8.72;73.93
74722;BME280;63470;49.826;6.740;2024-02-21T07:07:03;100779.03;;;8.72;73.89
74722;BME280;63470;49.826;6.740;2024-02-21T07:09:37;100774.08;;;8.73;73.86
74722;BME280;63470;49.826;6.740;2024-02-21T07:12:08;100769.63;;;8.73;73.87
74722;BME280;63470;49.826;6.740;2024-02-21T07:14:33;100768.59;;;8.74;73.91
74722;BME280;63470;49.826;6.740;2024-02-21T07:17:06;100767.34;;;8.75;73.90
74722;BME280;63470;49.826;6.740;2024-02-21T07:19:34;100765.94;;;8.77;73.89
74722;BME280;63470;49.826;6.740;2024-02-21T07:22:08;100762.39;;;8.79;73.89
74722;BME280;63470;49.826;6.740;2024-02-21T07:24:36;100760.42;;;8.81;73.89
74722;BME280;63470;49.826;6.740;2024-02-21T07:27:10;100755.02;;;8.82;73.89
74722;BME280;63470;49.826;6.740;2024-02-21T07:29:35;100748.50;;;8.84;73.89
74722;BME280;63470;49.826;6.740;2024-02-21T07:32:06;100745.54;;;8.86;73.92
74722;BME280;63470;49.826;6.740;2024-02-21T07:34:42;100750.20;;;8.89;73.93
74722;BME280;63470;49.826;6.740;2024-02-21T07:37:07;100749.97;;;8.92;73.91
74722;BME280;63470;49.826;6.740;2024-02-21T07:39:42;100754.02;;;8.95;73.88
74722;BME280;63470;49.826;6.740;2024-02-21T07:42:13;100761.08;;;8.98;73.86
74722;BME280;63470;49.826;6.740;2024-02-21T07:44:41;100755.80;;;9.00;73.85
74722;BME280;63470;49.826;6.740;2024-02-21T07:47:09;100758.28;;;9.02;73.88
74722;BME280;63470;49.826;6.740;2024-02-21T07:49:48;100753.67;;;9.07;73.86
74722;BME280;63470;49.826;6.740;2024-02-21T07:52:13;100763.05;;;9.09;73.79
74722;BME280;63470;49.826;6.740;2024-02-21T07:54:45;100766.00;;;9.10;73.80
74722;BME280;63470;49.826;6.740;2024-02-21T07:57:16;100761.14;;;9.12;73.87
74722;BME280;63470;49.826;6.740;2024-02-21T07:59:44;100762.36;;;9.16;73.88
74722;BME280;63470;49.826;6.740;2024-02-21T08:02:17;100761.38;;;9.20;73.85
74722;BME280;63470;49.826;6.740;2024-02-21T08:04:45;100758.23;;;9.23;73.82
74722;BME280;63470;49.826;6.740;2024-02-21T08:07:17;100755.69;;;9.26;73.77
74722;BME280;63470;49.826;6.740;2024-02-21T08:09:47;100749.41;;;9.30;73.82
74722;BME280;63470;49.826;6.740;2024-02-21T08:12:18;100751.46;;;9.37;73.79
74722;BME280;63470;49.826;6.740;2024-02-21T08:14:49;100743.70;;;9.40;73.68
74722;BME280;63470;49.826;6.740;2024-02-21T08:17:19;100743.52;;;9.41;73.64
74722;BME280;63470;49.826;6.740;2024-02-21T08:19:47;100745.91;;;9.44;73.68
74722;BME280;63470;49.826;6.740;2024-02-21T08:22:20;100744.10;;;9.49;73.73
74722;BME280;63470;49.826;6.740;2024-02-21T08:24:51;100736.64;;;9.54;73.70
74722;BME280;63470;49.826;6.740;2024-02-21T08:27:21;100737.30;;;9.61;73.68
74722;BME280;63470;49.826;6.740;2024-02-21T08:29:48;100727.48;;;9.65;73.61
74722;BME280;63470;49.826;6.740;2024-02-21T08:32:17;100714.77;;;9.69;73.62
74722;BME280;63470;49.826;6.740;2024-02-21T08:34:52;100706.72;;;9.78;73.61
74722;BME280;63470;49.826;6.740;2024-02-21T08:37:22;100704.39;;;9.83;73.58
74722;BME280;63470;49.826;6.740;2024-02-21T08:39:50;100703.03;;;9.91;73.62
74722;BME280;63470;49.826;6.740;2024-02-21T08:42:19;100701.48;;;10.00;73.58
74722;BME280;63470;49.826;6.740;2024-02-21T08:44:52;100697.48;;;10.06;73.52
74722;BME280;63470;49.826;6.740;2024-02-21T08:47:25;100691.96;;;10.10;73.45
74722;BME280;63470;49.826;6.740;2024-02-21T08:49:55;100691.20;;;10.12;73.43
74722;BME280;63470;49.826;6.740;2024-02-21T08:52:23;100695.82;;;10.15;73.52
74722;BME280;63470;49.826;6.740;2024-02-21T08:54:54;100689.38;;;10.18;73.50
74722;BME280;63470;49.826;6.740;2024-02-21T08:57:22;100685.16;;;10.19;73.53
74722;BME280;63470;49.826;6.740;2024-02-21T08:59:53;100688.19;;;10.22;73.52
74722;BME280;63470;49.826;6.740;2024-02-21T09:02:26;100686.03;;;10.23;73.51
74722;BME280;63470;49.826;6.740;2024-02-21T09:04:54;100679.92;;;10.23;73.48
74722;BME280;63470;49.826;6.740;2024-02-21T09:07:28;100679.93;;;10.20;73.52
74722;BME280;63470;49.826;6.740;2024-02-21T09:10:00;100674.92;;;10.19;73.56
74722;BME280;63470;49.826;6.740;2024-02-21T09:12:28;100665.86;;;10.19;73.60
74722;BME280;63470;49.826;6.740;2024-02-21T09:14:59;100661.19;;;10.25;73.67
74722;BME280;63470;49.826;6.740;2024-02-21T09:17:32;100658.16;;;10.34;73.68
74722;BME280;63470;49.826;6.740;2024-02-21T09:20:09;100650.19;;;10.39;73.58
74722;BME280;63470;49.826;6.740;2024-02-21T09:22:29;100645.59;;;10.45;73.57
74722;BME280;63470;49.826;6.740;2024-02-21T09:25:05;100638.94;;;10.51;73.63
74722;BME280;63470;49.826;6.740;2024-02-21T09:27:35;100634.88;;;10.61;73.66
74722;BME280;63470;49.826;6.740;2024-02-21T09:30:06;100623.06;;;10.71;73.63
74722;BME280;63470;49.826;6.740;2024-02-21T09:32:31;100623.12;;;10.82;73.57
74722;BME280;63470;49.826;6.740;2024-02-21T09:35:07;100616.77;;;10.90;73.42
74722;BME280;63470;49.826;6.740;2024-02-21T09:37:37;100613.27;;;11.00;73.47
74722;BME280;63470;49.826;6.740;2024-02-21T09:40:07;100608.30;;;11.13;73.42
74722;BME280;63470;49.826;6.740;2024-02-21T09:42:41;100600.83;;;11.23;73.43
74722;BME280;63470;49.826;6.740;2024-02-21T09:45:07;100599.95;;;11.33;73.21
74722;BME280;63470;49.826;6.740;2024-02-21T09:47:50;100596.89;;;11.33;73.14
74722;BME280;63470;49.826;6.740;2024-02-21T09:50:09;100587.66;;;11.26;73.20
74722;BME280;63470;49.826;6.740;2024-02-21T09:52:40;100585.79;;;11.24;73.28
74722;BME280;63470;49.826;6.740;2024-02-21T09:55:09;100581.20;;;11.23;73.38
74722;BME280;63470;49.826;6.740;2024-02-21T09:57:39;100575.84;;;11.25;73.50
74722;BME280;63470;49.826;6.740;2024-02-21T10:00:09;100573.84;;;11.29;73.48
74722;BME280;63470;49.826;6.740;2024-02-21T10:02:38;100573.41;;;11.29;73.42
74722;BME280;63470;49.826;6.740;2024-02-21T10:05:09;100567.45;;;11.24;73.36
74722;BME280;63470;49.826;6.740;2024-02-21T10:07:42;100563.38;;;11.20;73.50
74722;BME280;63470;49.826;6.740;2024-02-21T10:10:11;100562.58;;;11.17;73.49
74722;BME280;63470;49.826;6.740;2024-02-21T10:12:51;100562.36;;;11.16;73.55
74722;BME280;63470;49.826;6.740;2024-02-21T10:15:09;100563.10;;;11.17;73.62
74722;BME280;63470;49.826;6.740;2024-02-21T10:17:41;100562.72;;;11.19;73.67
74722;BME280;63470;49.826;6.740;2024-02-21T10:20:11;100559.22;;;11.22;73.62
74722;BME280;63470;49.826;6.740;2024-02-21T10:22:44;100558.01;;;11.26;73.57
74722;BME280;63470;49.826;6.740;2024-02-21T10:25:15;100555.06;;;11.24;73.54
74722;BME280;63470;49.826;6.740;2024-02-21T10:27:44;100552.28;;;11.22;73.58
74722;BME280;63470;49.826;6.740;2024-02-21T10:30:18;100555.17;;;11.22;73.57
74722;BME280;63470;49.826;6.740;2024-02-21T10:32:55;100562.16;;;11.24;73.64
74722;BME280;63470;49.826;6.740;2024-02-21T10:35:14;100564.50;;;11.33;73.68
74722;BME280;63470;49.826;6.740;2024-02-21T10:37:50;100556.10;;;11.45;73.57
74722;BME280;63470;49.826;6.740;2024-02-21T10:40:20;100556.86;;;11.55;73.46
74722;BME280;63470;49.826;6.740;2024-02-21T10:42:56;100555.04;;;11.61;73.42
74722;BME280;63470;49.826;6.740;2024-02-21T10:45:20;100553.84;;;11.70;73.41
74722;BME280;63470;49.826;6.740;2024-02-21T10:47:54;100545.28;;;11.79;73.35
74722;BME280;63470;49.826;6.740;2024-02-21T10:50:19;100549.73;;;11.86;73.30
74722;BME280;63470;49.826;6.740;2024-02-21T10:55:28;100537.86;;;11.82;73.19
74722;BME280;63470;49.826;6.740;2024-02-21T10:57:53;100531.70;;;11.75;73.32
74722;BME280;63470;49.826;6.740;2024-02-21T11:00:21;100533.17;;;11.71;73.40
74722;BME280;63470;49.826;6.740;2024-02-21T11:02:52;100523.62;;;11.68;73.49
74722;BME280;63470;49.826;6.740;2024-02-21T11:05:23;100523.53;;;11.68;73.52
74722;BME280;63470;49.826;6.740;2024-02-21T11:07:53;100516.46;;;11.65;73.59
74722;BME280;63470;49.826;6.740;2024-02-21T11:10:23;100516.21;;;11.64;73.54
74722;BME280;63470;49.826;6.740;2024-02-21T11:13:08;100511.03;;;11.63;73.56
74722;BME280;63470;49.826;6.740;2024-02-21T11:15:25;100508.92;;;11.61;73.59
74722;BME280;63470;49.826;6.740;2024-02-21T11:17:57;100498.77;;;11.64;73.60
74722;BME280;63470;49.826;6.740;2024-02-21T11:20:34;100492.85;;;11.63;73.61
74722;BME280;63470;49.826;6.740;2024-02-21T11:22:58;100489.18;;;11.66;73.61
74722;BME280;63470;49.826;6.740;2024-02-21T11:25:29;100481.13;;;11.66;73.60
74722;BME280;63470;49.826;6.740;2024-02-21T11:28:01;100473.31;;;11.66;73.64
74722;BME280;63470;49.826;6.740;2024-02-21T11:30:30;100466.23;;;11.63;73.59
74722;BME280;63470;49.826;6.740;2024-02-21T11:33:05;100457.48;;;11.62;73.65
74722;BME280;63470;49.826;6.740;2024-02-21T11:35:30;100454.83;;;11.62;73.66
74722;BME280;63470;49.826;6.740;2024-02-21T11:38:09;100440.33;;;11.64;73.72
74722;BME280;63470;49.826;6.740;2024-02-21T11:40:31;100435.62;;;11.67;73.68
74722;BME280;63470;49.826;6.740;2024-02-21T11:43:01;100426.12;;;11.71;73.72
74722;BME280;63470;49.826;6.740;2024-02-21T11:45:29;100411.77;;;11.78;73.65
74722;BME280;63470;49.826;6.740;2024-02-21T11:48:07;100407.35;;;11.84;73.61
74722;BME280;63470;49.826;6.740;2024-02-21T11:50:31;100401.83;;;11.93;73.55
74722;BME280;63470;49.826;6.740;2024-02-21T11:53:03;100390.75;;;11.96;73.48
74722;BME280;63470;49.826;6.740;2024-02-21T11:55:34;100381.81;;;11.98;73.52
74722;BME280;63470;49.826;6.740;2024-02-21T11:58:08;100363.55;;;12.01;73.49
74722;BME280;63470;49.826;6.740;2024-02-21T12:00:35;100365.38;;;12.04;73.56
74722;BME280;63470;49.826;6.740;2024-02-21T12:03:04;100362.52;;;12.07;73.52
74722;BME280;63470;49.826;6.740;2024-02-21T12:05:39;100350.77;;;12.07;73.49
74722;BME280;63470;49.826;6.740;2024-02-21T12:08:09;100347.26;;;12.08;73.55
74722;BME280;63470;49.826;6.740;2024-02-21T12:10:36;100340.52;;;12.11;73.60
74722;BME280;63470;49.826;6.740;2024-02-21T12:13:06;100338.20;;;12.11;73.56
74722;BME280;63470;49.826;6.740;2024-02-21T12:15:41;100345.31;;;12.10;73.57
74722;BME280;63470;49.826;6.740;2024-02-21T12:18:11;100336.25;;;12.05;73.54
74722;BME280;63470;49.826;6.740;2024-02-21T12:20:37;100333.69;;;12.00;73.59
74722;BME280;63470;49.826;6.740;2024-02-21T12:23:11;100325.80;;;11.98;73.68
74722;BME280;63470;49.826;6.740;2024-02-21T12:25:45;100324.30;;;11.98;73.64
74722;BME280;63470;49.826;6.740;2024-02-21T12:28:11;100327.20;;;11.98;73.69
74722;BME280;63470;49.826;6.740;2024-02-21T12:30:45;100319.42;;;11.99;73.65
74722;BME280;63470;49.826;6.740;2024-02-21T12:33:10;100309.00;;;12.00;73.69
74722;BME280;63470;49.826;6.740;2024-02-21T12:35:44;100303.62;;;12.03;73.68
74722;BME280;63470;49.826;6.740;2024-02-21T12:38:14;100296.72;;;12.04;73.64
74722;BME280;63470;49.826;6.740;2024-02-21T12:40:46;100295.89;;;12.08;73.69
74722;BME280;63470;49.826;6.740;2024-02-21T12:43:12;100297.17;;;12.14;73.73
74722;BME280;63470;49.826;6.740;2024-02-21T12:45:42;100285.00;;;12.19;73.60
74722;BME280;63470;49.826;6.740;2024-02-21T12:48:17;100272.51;;;12.19;73.57
74722;BME280;63470;49.826;6.740;2024-02-21T12:50:54;100281.73;;;12.20;73.61
74722;BME280;63470;49.826;6.740;2024-02-21T12:53:19;100272.05;;;12.24;73.59
74722;BME280;63470;49.826;6.740;2024-02-21T12:55:49;100264.68;;;12.26;73.57
74722;BME280;63470;49.826;6.740;2024-02-21T12:58:18;100253.91;;;12.30;73.57
74722;BME280;63470;49.826;6.740;2024-02-21T13:00:46;100245.53;;;12.38;73.63
74722;BME280;63470;49.826;6.740;2024-02-21T13:03:18;100223.13;;;12.54;73.47
74722;BME280;63470;49.826;6.740;2024-02-21T13:05:53;100223.83;;;12.70;73.51
74722;BME280;63470;49.826;6.740;2024-02-21T13:08:22;100226.48;;;12.86;73.29
74722;BME280;63470;49.826;6.740;2024-02-21T13:10:53;100218.05;;;12.98;73.20
74722;BME280;63470;49.826;6.740;2024-02-21T13:13:21;100206.05;;;13.03;73.11
74722;BME280;63470;49.826;6.740;2024-02-21T13:15:54;100203.40;;;13.08;73.00